createdAt,value
2023-02-22T00:02:11.517Z,21.70
2023-02-22T00:04:41.939Z,21.60
2023-02-22T00:07:09.423Z,19.90
2023-02-22T00:09:36.932Z,18.10
2023-02-22T00:12:04.412Z,19.50
2023-02-22T00:14:31.886Z,23.00
2023-02-22T00:16:59.916Z,22.70
2023-02-22T00:19:30.865Z,22.60
2023-02-22T00:21:58.376Z,25.60
2023-02-22T00:24:26.393Z,25.00
2023-02-22T00:26:55.966Z,23.40
2023-02-22T00:29:24.826Z,22.20
2023-02-22T00:31:52.620Z,22.30
2023-02-22T00:34:20.134Z,21.80
2023-02-22T00:36:50.746Z,23.50
2023-02-22T00:39:18.320Z,24.20
2023-02-22T00:41:45.827Z,24.60
2023-02-22T00:44:13.415Z,21.80
2023-02-22T00:46:40.847Z,24.30
2023-02-22T00:49:08.235Z,26.00
2023-02-22T00:51:35.659Z,25.20
2023-02-22T00:54:03.175Z,23.90
2023-02-22T00:56:32.387Z,22.60
2023-02-22T00:59:01.000Z,22.80
2023-02-22T01:01:28.464Z,24.10
2023-02-22T01:03:56.152Z,24.00
2023-02-22T01:06:23.620Z,26.60
2023-02-22T01:08:50.982Z,27.10
2023-02-22T01:11:18.902Z,23.20
2023-02-22T01:13:46.390Z,21.50
2023-02-22T01:16:14.162Z,20.90
2023-02-22T01:18:41.489Z,26.10
2023-02-22T01:21:09.051Z,24.90
2023-02-22T01:23:36.506Z,23.60
2023-02-22T01:26:06.161Z,26.00
2023-02-22T01:28:34.716Z,23.40
2023-02-22T01:31:03.052Z,27.10
2023-02-22T01:33:31.334Z,27.50
2023-02-22T01:36:00.095Z,23.50
2023-02-22T01:38:27.719Z,25.90
2023-02-22T01:40:55.190Z,21.40
2023-02-22T01:43:31.064Z,25.10
2023-02-22T01:46:04.266Z,25.50
2023-02-22T01:48:39.337Z,24.00
2023-02-22T01:51:40.013Z,24.10
2023-02-22T01:54:18.405Z,23.50
2023-02-22T01:57:11.317Z,24.60
2023-02-22T01:59:44.983Z,26.70
2023-02-22T02:02:14.672Z,25.40
2023-02-22T02:04:42.903Z,24.20
2023-02-22T02:07:13.809Z,24.60
2023-02-22T02:09:56.731Z,23.30
2023-02-22T02:12:25.006Z,22.30
2023-02-22T02:14:52.504Z,23.30
2023-02-22T02:17:23.098Z,25.10
2023-02-22T02:20:55.404Z,25.80
2023-02-22T02:23:45.612Z,22.80
2023-02-22T02:26:24.969Z,26.30
2023-02-22T02:29:32.974Z,28.30
2023-02-22T02:32:36.868Z,25.40
2023-02-22T02:35:59.418Z,23.30
2023-02-22T02:38:46.473Z,21.70
2023-02-22T02:41:21.832Z,29.90
2023-02-22T02:44:13.067Z,24.00
2023-02-22T02:46:51.376Z,23.30
2023-02-22T02:49:31.239Z,24.00
2023-02-22T02:51:59.477Z,25.80
2023-02-22T02:54:27.651Z,23.50
2023-02-22T02:56:58.003Z,26.30
2023-02-22T02:59:30.527Z,27.80
2023-02-22T03:02:07.638Z,23.30
2023-02-22T03:04:59.643Z,26.00
2023-02-22T03:08:27.505Z,25.20
2023-02-22T03:11:18.984Z,26.00
2023-02-22T03:17:26.917Z,24.70
2023-02-22T03:20:05.072Z,22.50
2023-02-22T03:23:09.738Z,23.90
2023-02-22T03:25:43.984Z,22.80
2023-02-22T03:28:16.400Z,21.80
2023-02-22T03:31:00.982Z,26.40
2023-02-22T03:34:02.050Z,25.90
2023-02-22T03:36:35.185Z,20.20
2023-02-22T03:39:04.336Z,23.50
2023-02-22T03:41:34.200Z,24.40
2023-02-22T03:44:15.760Z,22.90
2023-02-22T03:49:17.259Z,27.70
2023-02-22T03:51:44.737Z,24.70
2023-02-22T03:54:16.663Z,26.50
2023-02-22T03:56:52.022Z,24.20
2023-02-22T03:59:25.397Z,26.30
2023-02-22T04:01:54.820Z,24.60
2023-02-22T04:04:23.862Z,25.50
2023-02-22T04:06:52.323Z,27.50
2023-02-22T04:09:20.978Z,24.40
2023-02-22T04:11:48.911Z,25.30
2023-02-22T04:14:16.349Z,24.40
2023-02-22T04:16:43.760Z,22.20
2023-02-22T04:19:11.119Z,23.70
2023-02-22T04:21:38.575Z,24.20
2023-02-22T04:24:06.598Z,24.20
2023-02-22T04:26:34.020Z,25.60
2023-02-22T04:29:01.404Z,24.10
2023-02-22T04:31:28.910Z,27.00
2023-02-22T04:33:56.359Z,25.40
2023-02-22T04:36:23.946Z,23.00
2023-02-22T04:38:51.458Z,21.60
2023-02-22T04:41:19.919Z,22.90
2023-02-22T04:43:47.392Z,21.60
2023-02-22T04:46:14.911Z,24.10
2023-02-22T04:48:42.334Z,22.90
2023-02-22T04:51:10.107Z,24.10
2023-02-22T04:53:37.577Z,22.90
2023-02-22T04:56:05.344Z,22.90
2023-02-22T04:58:32.770Z,22.10
2023-02-22T05:01:01.312Z,23.90
2023-02-22T05:03:29.063Z,24.40
2023-02-22T05:05:56.603Z,22.60
2023-02-22T05:08:24.030Z,23.50
2023-02-22T05:10:51.387Z,21.10
2023-02-22T05:13:18.872Z,22.60
2023-02-22T05:15:46.326Z,20.60
2023-02-22T05:18:14.752Z,21.00
2023-02-22T05:20:42.106Z,22.20
2023-02-22T05:23:09.526Z,21.60
2023-02-22T05:25:37.047Z,22.30
2023-02-22T05:28:11.361Z,23.60
2023-02-22T05:30:42.521Z,21.60
2023-02-22T05:33:10.667Z,20.80
2023-02-22T05:35:38.290Z,23.50
2023-02-22T05:38:06.547Z,21.60
2023-02-22T05:40:34.055Z,21.10
2023-02-22T05:43:02.769Z,21.30
2023-02-22T05:45:30.516Z,25.20
2023-02-22T05:47:58.162Z,24.20
2023-02-22T05:50:26.284Z,22.40
2023-02-22T05:52:54.424Z,23.50
2023-02-22T05:55:24.475Z,23.80
2023-02-22T05:57:52.997Z,21.70
2023-02-22T06:00:30.878Z,23.50
2023-02-22T06:03:06.343Z,21.20
2023-02-22T06:05:34.456Z,21.40
2023-02-22T06:08:03.570Z,23.40
2023-02-22T06:10:31.432Z,24.60
2023-02-22T06:13:00.154Z,22.90
2023-02-22T06:15:29.162Z,19.60
2023-02-22T06:17:58.763Z,26.10
2023-02-22T06:20:29.289Z,23.20
2023-02-22T06:22:59.080Z,22.20
2023-02-22T06:25:31.436Z,20.60
2023-02-22T06:28:02.442Z,23.70
2023-02-22T06:30:30.749Z,21.70
2023-02-22T06:32:58.202Z,23.60
2023-02-22T06:35:25.965Z,21.30
2023-02-22T06:37:53.441Z,23.10
2023-02-22T06:40:21.153Z,24.70
2023-02-22T06:42:49.603Z,25.10
2023-02-22T06:45:18.600Z,21.00
2023-02-22T06:47:47.055Z,25.60
2023-02-22T06:50:28.811Z,25.50
2023-02-22T06:52:58.254Z,23.20
2023-02-22T06:55:28.872Z,21.40
2023-02-22T06:57:56.782Z,24.20
2023-02-22T07:00:27.008Z,22.00
2023-02-22T07:02:54.970Z,23.80
2023-02-22T07:05:25.830Z,22.20
2023-02-22T07:07:56.163Z,26.80
2023-02-22T07:10:27.841Z,24.70
2023-02-22T07:12:55.838Z,25.30
2023-02-22T07:15:28.032Z,24.60
2023-02-22T07:17:56.912Z,23.70
2023-02-22T07:20:26.336Z,24.80
2023-02-22T07:22:53.977Z,36.70
2023-02-22T07:25:23.497Z,26.80
2023-02-22T07:27:53.061Z,25.20
2023-02-22T07:30:25.565Z,26.10
2023-02-22T07:32:55.575Z,23.70
2023-02-22T07:35:28.092Z,28.50
2023-02-22T07:37:56.272Z,27.50
2023-02-22T07:40:25.936Z,26.00
2023-02-22T07:43:02.694Z,27.70
2023-02-22T07:45:35.446Z,23.90
2023-02-22T07:48:05.044Z,28.30
2023-02-22T07:50:34.416Z,28.70
2023-02-22T07:53:11.097Z,27.80
2023-02-22T07:55:38.741Z,26.40
2023-02-22T07:58:08.433Z,27.80
2023-02-22T08:00:39.407Z,27.40
2023-02-22T08:03:10.560Z,30.60
2023-02-22T08:05:40.967Z,30.40
2023-02-22T08:08:08.732Z,30.30
2023-02-22T08:10:36.900Z,33.50
2023-02-22T08:13:05.948Z,33.80
2023-02-22T08:15:41.518Z,31.80
2023-02-22T08:18:17.796Z,30.80
2023-02-22T08:20:47.980Z,33.40
2023-02-22T08:23:17.206Z,33.30
2023-02-22T08:25:44.715Z,35.80
2023-02-22T08:28:16.654Z,36.50
2023-02-22T08:30:44.387Z,32.50
2023-02-22T08:33:15.885Z,35.60
2023-02-22T08:35:43.442Z,37.50
2023-02-22T08:38:31.373Z,33.90
2023-02-22T08:40:58.848Z,32.20
2023-02-22T08:43:26.775Z,34.10
2023-02-22T08:45:57.216Z,39.10
2023-02-22T08:48:25.019Z,37.10
2023-02-22T08:50:52.518Z,34.40
2023-02-22T08:53:19.976Z,38.40
2023-02-22T08:55:47.511Z,35.00
2023-02-22T08:58:14.950Z,39.00
2023-02-22T09:00:44.669Z,35.80
2023-02-22T09:03:15.274Z,38.50
2023-02-22T09:05:44.175Z,35.40
2023-02-22T09:08:11.960Z,35.60
2023-02-22T09:10:40.637Z,38.20
2023-02-22T09:13:08.239Z,35.50
2023-02-22T09:15:39.745Z,37.20
2023-02-22T09:18:10.687Z,36.80
2023-02-22T09:20:38.153Z,39.40
2023-02-22T09:23:09.809Z,36.40
2023-02-22T09:25:40.797Z,36.10
2023-02-22T09:28:08.322Z,39.80
2023-02-22T09:30:36.899Z,39.90
2023-02-22T09:33:11.540Z,37.10
2023-02-22T09:35:46.363Z,37.40
2023-02-22T09:38:22.875Z,38.70
2023-02-22T09:40:55.960Z,37.90
2023-02-22T09:43:49.737Z,35.20
2023-02-22T09:46:37.860Z,33.50
2023-02-22T09:49:47.524Z,34.50
2023-02-22T09:52:24.571Z,33.00
2023-02-22T09:55:08.128Z,36.10
2023-02-22T09:57:41.114Z,34.30
2023-02-22T10:00:14.850Z,35.30
2023-02-22T10:03:21.562Z,33.50
2023-02-22T10:05:59.886Z,34.60
2023-02-22T10:08:33.299Z,36.10
2023-02-22T10:11:40.436Z,32.70
2023-02-22T10:14:53.493Z,34.80
2023-02-22T10:17:55.521Z,33.00
2023-02-22T10:20:38.130Z,33.50
2023-02-22T10:23:20.364Z,33.70
2023-02-22T10:25:57.455Z,32.30
2023-02-22T10:28:38.957Z,34.90
2023-02-22T10:33:46.619Z,33.70
2023-02-22T10:36:21.965Z,33.50
2023-02-22T10:39:00.169Z,36.40
2023-02-22T10:41:34.088Z,31.80
2023-02-22T10:44:02.920Z,33.90
2023-02-22T10:46:33.499Z,32.60
2023-02-22T10:49:07.055Z,33.60
2023-02-22T10:51:35.275Z,31.40
2023-02-22T10:54:14.577Z,35.50
2023-02-22T10:56:50.863Z,37.70
2023-02-22T10:59:35.143Z,33.50
2023-02-22T11:02:21.863Z,33.60
2023-02-22T11:04:53.587Z,36.30
2023-02-22T11:07:42.757Z,34.90
2023-02-22T11:10:10.198Z,34.00
2023-02-22T11:12:45.606Z,33.60
2023-02-22T11:15:28.961Z,36.10
2023-02-22T11:17:58.922Z,35.80
2023-02-22T11:20:35.260Z,35.80
2023-02-22T11:23:04.946Z,36.40
2023-02-22T11:25:38.681Z,36.10
2023-02-22T11:28:30.906Z,34.70
2023-02-22T11:31:12.200Z,36.20
2023-02-22T11:33:39.820Z,39.50
2023-02-22T11:36:09.395Z,41.50
2023-02-22T11:38:39.271Z,33.40
2023-02-22T11:41:26.610Z,37.50
2023-02-22T11:43:56.841Z,34.10
2023-02-22T11:46:31.401Z,32.90
2023-02-22T11:49:14.132Z,33.50
2023-02-22T11:51:56.394Z,36.70
2023-02-22T11:54:40.818Z,33.20
2023-02-22T11:58:04.612Z,33.90
2023-02-22T12:00:50.555Z,34.10
2023-02-22T12:03:33.106Z,34.90
2023-02-22T12:06:19.567Z,36.30
2023-02-22T12:09:15.073Z,36.00
2023-02-22T12:12:00.282Z,36.50
2023-02-22T12:15:01.715Z,30.50
2023-02-22T12:17:59.402Z,33.30
2023-02-22T12:20:47.731Z,33.80
2023-02-22T12:23:30.058Z,31.20
2023-02-22T12:26:05.408Z,33.70
2023-02-22T12:28:43.569Z,31.70
2023-02-22T12:31:30.288Z,34.90
2023-02-22T12:34:19.980Z,33.20
2023-02-22T12:36:53.583Z,34.80
2023-02-22T12:39:52.338Z,38.10
2023-02-22T12:42:48.614Z,37.30
2023-02-22T12:45:34.855Z,35.10
2023-02-22T12:48:46.293Z,34.00
2023-02-22T12:51:29.879Z,38.40
2023-02-22T12:54:25.869Z,36.80
2023-02-22T12:56:54.752Z,34.30
2023-02-22T12:59:56.380Z,35.70
2023-02-22T13:04:58.982Z,36.90
2023-02-22T13:08:19.278Z,39.20
2023-02-22T13:10:57.252Z,36.60
2023-02-22T13:13:56.873Z,38.80
2023-02-22T13:16:40.964Z,39.70
2023-02-22T13:19:43.654Z,34.60
2023-02-22T13:22:18.440Z,39.50
2023-02-22T13:25:15.386Z,38.30
2023-02-22T13:28:00.560Z,35.60
2023-02-22T13:30:45.688Z,33.70
2023-02-22T13:33:29.551Z,30.90
2023-02-22T13:36:21.088Z,28.00
2023-02-22T13:42:02.670Z,27.90
2023-02-22T13:45:22.630Z,30.50
2023-02-22T13:48:07.387Z,25.80
2023-02-22T13:50:59.598Z,28.20
2023-02-22T13:53:47.211Z,26.20
2023-02-22T13:56:16.378Z,26.80
2023-02-22T13:58:51.747Z,34.20
2023-02-22T14:01:40.697Z,29.00
2023-02-22T14:04:26.929Z,28.10
2023-02-22T14:07:21.371Z,28.10
2023-02-22T14:09:56.218Z,29.90
2023-02-22T14:12:29.983Z,27.80
2023-02-22T14:15:28.600Z,28.50
2023-02-22T14:17:56.853Z,25.60
2023-02-22T14:20:35.259Z,24.00
2023-02-22T14:23:29.895Z,25.60
2023-02-22T14:26:22.256Z,22.00
2023-02-22T14:29:00.131Z,20.50
2023-02-22T14:31:37.406Z,24.40
2023-02-22T14:34:11.221Z,23.00
2023-02-22T14:36:54.872Z,23.50
2023-02-22T14:39:32.213Z,22.30
2023-02-22T14:42:17.905Z,24.40
2023-02-22T14:44:48.893Z,22.20
2023-02-22T14:47:49.567Z,22.80
2023-02-22T14:50:25.554Z,24.80
2023-02-22T14:53:03.549Z,23.80
2023-02-22T14:55:38.100Z,29.30
2023-02-22T14:58:12.695Z,28.60
2023-02-22T15:00:42.972Z,30.90
2023-02-22T15:03:29.301Z,34.10
2023-02-22T15:05:59.809Z,28.50
2023-02-22T15:08:28.611Z,27.00
2023-02-22T15:10:56.021Z,27.30
2023-02-22T15:13:32.922Z,24.90
2023-02-22T15:16:03.649Z,22.80
2023-02-22T15:18:40.595Z,23.50
2023-02-22T15:21:13.461Z,21.10
2023-02-22T15:24:00.280Z,18.50
2023-02-22T15:26:51.953Z,20.80
2023-02-22T15:29:27.080Z,16.60
2023-02-22T15:31:56.725Z,16.10
2023-02-22T15:34:29.407Z,16.00
2023-02-22T15:37:19.307Z,17.20
2023-02-22T15:39:46.677Z,18.50
2023-02-22T15:42:21.031Z,17.80
2023-02-22T15:44:53.827Z,18.80
2023-02-22T15:47:25.390Z,16.10
2023-02-22T15:50:25.982Z,18.40
2023-02-22T15:52:58.381Z,20.80
2023-02-22T15:55:44.046Z,18.50
2023-02-22T15:58:23.885Z,20.70
2023-02-22T16:01:04.159Z,20.70
2023-02-22T16:03:46.123Z,17.70
2023-02-22T16:06:36.045Z,20.80
2023-02-22T16:09:17.534Z,18.00
2023-02-22T16:14:44.928Z,16.80
2023-02-22T16:17:25.414Z,16.90
2023-02-22T16:19:53.224Z,15.50
2023-02-22T16:22:33.871Z,14.10
2023-02-22T16:25:18.262Z,14.30
2023-02-22T16:28:03.188Z,13.70
2023-02-22T16:30:39.967Z,14.50
2023-02-22T16:33:16.629Z,12.70
2023-02-22T16:35:51.840Z,15.80
2023-02-22T16:38:21.178Z,15.20
2023-02-22T16:40:55.553Z,14.90
2023-02-22T16:43:33.823Z,14.10
2023-02-22T16:46:03.725Z,14.90
2023-02-22T16:48:33.606Z,14.70
2023-02-22T16:51:07.757Z,14.10
2023-02-22T16:53:36.809Z,15.20
2023-02-22T16:56:09.099Z,14.10
2023-02-22T16:58:40.330Z,17.10
2023-02-22T17:01:09.501Z,15.00
2023-02-22T17:03:37.020Z,13.20
2023-02-22T17:06:05.192Z,14.90
2023-02-22T17:08:32.631Z,15.30
2023-02-22T17:11:00.753Z,14.00
2023-02-22T17:13:29.395Z,14.50
2023-02-22T17:15:57.619Z,17.00
2023-02-22T17:18:28.753Z,16.30
2023-02-22T17:23:24.885Z,16.30
2023-02-22T17:25:56.099Z,19.00
2023-02-22T17:28:25.347Z,14.80
2023-02-22T17:30:55.167Z,14.10
2023-02-22T17:33:27.806Z,15.00
2023-02-22T17:35:58.204Z,15.00
2023-02-22T17:38:29.065Z,14.20
2023-02-22T17:40:58.822Z,16.00
2023-02-22T17:43:27.950Z,17.10
2023-02-22T17:45:56.407Z,15.50
2023-02-22T17:48:24.691Z,16.40
2023-02-22T17:50:53.014Z,14.80
2023-02-22T17:53:24.558Z,14.40
2023-02-22T17:55:52.660Z,15.70
2023-02-22T17:58:20.988Z,15.70
2023-02-22T18:00:50.489Z,14.30
2023-02-22T18:03:25.848Z,14.30
2023-02-22T18:05:58.100Z,14.70
2023-02-22T18:08:31.139Z,15.20
2023-02-22T18:10:59.039Z,18.10
2023-02-22T18:13:27.482Z,14.60
2023-02-22T18:16:00.356Z,17.50
2023-02-22T18:18:28.158Z,14.50
2023-02-22T18:20:59.705Z,14.90
2023-02-22T18:23:30.762Z,14.60
2023-02-22T18:26:10.515Z,15.80
2023-02-22T18:28:39.927Z,17.60
2023-02-22T18:31:16.958Z,15.20
2023-02-22T18:33:47.958Z,17.70
2023-02-22T18:36:23.039Z,16.60
2023-02-22T18:38:55.090Z,17.70
2023-02-22T18:41:26.810Z,17.60
2023-02-22T18:44:00.467Z,15.70
2023-02-22T18:46:30.052Z,16.60
2023-02-22T18:48:58.722Z,13.50
2023-02-22T18:51:27.506Z,11.50
2023-02-22T18:54:00.353Z,14.40
2023-02-22T18:56:30.108Z,15.60
2023-02-22T18:59:01.072Z,17.70
2023-02-22T19:01:30.855Z,15.10
2023-02-22T19:04:00.730Z,16.40
2023-02-22T19:06:28.248Z,16.00
2023-02-22T19:08:55.710Z,13.10
2023-02-22T19:11:24.880Z,14.10
2023-02-22T19:13:56.851Z,12.60
2023-02-22T19:16:26.563Z,14.40
2023-02-22T19:18:57.974Z,11.40
2023-02-22T19:23:56.126Z,9.70
2023-02-22T19:26:26.860Z,11.10
2023-02-22T19:28:56.899Z,12.00
2023-02-22T19:31:31.688Z,10.90
2023-02-22T19:34:10.499Z,12.20
2023-02-22T19:36:41.383Z,11.50
2023-02-22T19:39:09.220Z,12.80
2023-02-22T19:41:36.622Z,11.80
2023-02-22T19:44:05.362Z,12.20
2023-02-22T19:46:33.166Z,13.70
2023-02-22T19:49:01.864Z,10.30
2023-02-22T19:51:31.149Z,11.10
2023-02-22T19:54:05.295Z,12.10
2023-02-22T19:56:35.424Z,17.10
2023-02-22T19:59:09.555Z,10.80
2023-02-22T20:01:37.498Z,10.70
2023-02-22T20:04:17.763Z,10.90
2023-02-22T20:06:46.940Z,13.60
2023-02-22T20:09:18.884Z,12.00
2023-02-22T20:11:47.635Z,10.80
2023-02-22T20:14:23.491Z,14.50
2023-02-22T20:16:52.206Z,10.40
2023-02-22T20:19:22.430Z,11.10
2023-02-22T20:21:52.428Z,11.30
2023-02-22T20:24:19.844Z,12.20
2023-02-22T20:26:48.426Z,12.40
2023-02-22T20:29:16.382Z,13.70
2023-02-22T20:31:44.805Z,11.90
2023-02-22T20:34:12.486Z,16.50
2023-02-22T20:36:41.804Z,13.30
2023-02-22T20:39:13.524Z,12.20
2023-02-22T20:41:43.906Z,11.50
2023-02-22T20:44:15.037Z,12.20
2023-02-22T20:46:43.490Z,11.70
2023-02-22T20:49:19.764Z,13.40
2023-02-22T20:51:48.464Z,13.90
2023-02-22T20:54:16.909Z,14.00
2023-02-22T20:56:46.321Z,14.00
2023-02-22T20:59:17.964Z,14.20
2023-02-22T21:01:48.218Z,13.90
2023-02-22T21:04:16.956Z,13.30
2023-02-22T21:06:44.636Z,17.30
2023-02-22T21:09:18.923Z,15.90
2023-02-22T21:11:46.882Z,15.60
2023-02-22T21:14:18.730Z,15.80
2023-02-22T21:16:49.512Z,16.40
2023-02-22T21:19:25.442Z,16.40
2023-02-22T21:21:55.834Z,18.40
2023-02-22T21:24:25.879Z,18.20
2023-02-22T21:26:53.617Z,16.80
2023-02-22T21:29:21.192Z,18.10
2023-02-22T21:31:48.760Z,17.10
2023-02-22T21:34:17.633Z,18.60
2023-02-22T21:36:45.638Z,18.20
2023-02-22T21:39:18.255Z,21.10
2023-02-22T21:41:52.079Z,18.50
2023-02-22T21:44:19.946Z,22.40
2023-02-22T21:46:50.662Z,19.30
2023-02-22T21:49:22.680Z,21.70
2023-02-22T21:51:51.781Z,24.20
2023-02-22T21:54:20.273Z,20.70
2023-02-22T21:56:48.002Z,22.90
2023-02-22T21:59:23.837Z,20.70
2023-02-22T22:01:57.527Z,19.30
2023-02-22T22:04:30.400Z,19.50
2023-02-22T22:07:00.132Z,19.80
2023-02-22T22:09:33.245Z,16.70
2023-02-22T22:12:05.292Z,16.90
2023-02-22T22:14:34.177Z,16.20
2023-02-22T22:17:05.814Z,17.80
2023-02-22T22:19:40.688Z,14.90
2023-02-22T22:22:08.706Z,15.80
2023-02-22T22:24:37.288Z,17.70
2023-02-22T22:27:06.589Z,15.50
2023-02-22T22:29:34.561Z,15.00
2023-02-22T22:32:03.319Z,18.10
2023-02-22T22:34:30.903Z,14.60
2023-02-22T22:36:58.524Z,16.80
2023-02-22T22:39:27.049Z,14.60
2023-02-22T22:41:54.830Z,16.60
2023-02-22T22:44:22.586Z,17.50
2023-02-22T22:46:53.564Z,16.80
2023-02-22T22:49:23.517Z,17.50
2023-02-22T22:51:51.165Z,15.20
2023-02-22T22:54:18.711Z,17.50
2023-02-22T22:56:46.555Z,16.10
2023-02-22T22:59:14.059Z,17.20
2023-02-22T23:01:44.958Z,15.30
2023-02-22T23:04:18.212Z,16.10
2023-02-22T23:06:50.576Z,14.70
2023-02-22T23:09:22.743Z,15.50
2023-02-22T23:12:08.820Z,15.70
2023-02-22T23:14:44.261Z,14.30
2023-02-22T23:17:26.862Z,15.60
2023-02-22T23:19:54.973Z,14.20
2023-02-22T23:22:22.414Z,15.30
2023-02-22T23:24:49.875Z,14.10
2023-02-22T23:27:19.033Z,14.70
2023-02-22T23:29:46.710Z,13.20
2023-02-22T23:32:15.229Z,13.10
2023-02-22T23:34:42.706Z,13.30
2023-02-22T23:37:10.763Z,13.10
2023-02-22T23:39:38.764Z,14.20
2023-02-22T23:42:08.952Z,13.70
2023-02-22T23:44:36.716Z,12.10
2023-02-22T23:47:04.649Z,12.60
2023-02-22T23:49:38.718Z,11.20
2023-02-22T23:52:08.452Z,12.90
2023-02-22T23:54:40.486Z,12.00
2023-02-22T23:57:08.893Z,15.20
2023-02-22T23:59:40.539Z,12.60
